Time;durP1;ratioP1;P1;durP2;ratioP2;P2;SDS_P1;SDS_P2;PMS_P1;PMS_P2;Temp;Humidity;BMP_temperature;BMP_pressure;BME280_temperature;BME280_humidity;BME280_pressure;Samples;Min_cycle;Max_cycle;Signal;HPM_P1;HPM_P2
2022/06/24 00:01:26;;;;;;;22.10;19.80;;;538.50;2406.40;;;;;;4997974;28;20061;-85
2022/06/24 00:03:53;;;;;;;22.85;20.17;;;563.60;2432.00;;;;;;4997201;28;20030;-85
2022/06/24 00:06:19;;;;;;;21.42;19.13;;;563.70;2432.00;;;;;;4997794;28;20387;-85
2022/06/24 00:08:56;;;;;;;22.10;18.67;;;538.40;2406.40;;;;;;4997784;28;20026;-84
2022/06/24 00:11:24;;;;;;;22.08;19.80;;;538.50;2406.40;;;;;;4997665;28;20030;-85
2022/06/24 00:13:50;;;;;;;22.83;20.33;;;538.30;2406.40;;;;;;4997143;28;20033;-85
2022/06/24 00:16:16;;;;;;;28.40;22.00;;;538.30;2406.40;;;;;;4997243;28;20041;-86
2022/06/24 00:18:42;;;;;;;22.25;19.88;;;538.40;2406.40;;;;;;4997433;28;20026;-85
2022/06/24 00:21:12;;;;;;;21.52;19.33;;;538.30;2406.40;;;;;;4998913;28;20494;-85
2022/06/24 00:23:40;;;;;;;20.92;18.83;;;538.30;2406.40;;;;;;5014727;28;20014;-85
2022/06/24 00:26:06;;;;;;;23.55;19.55;;;538.50;2406.40;;;;;;5016396;28;20022;-85
2022/06/24 00:28:32;;;;;;;23.98;18.92;;;538.50;2406.40;;;;;;5020067;28;20101;-82
2022/06/24 00:31:01;;;;;;;21.95;19.10;;;538.50;2406.40;;;;;;5021089;28;20029;-84
2022/06/24 00:33:36;;;;;;;21.55;19.13;;;538.30;2406.40;;;;;;5031292;28;20069;-85
2022/06/24 00:36:05;;;;;;;22.38;19.17;;;538.50;2406.40;;;;;;5056392;28;20025;-84
2022/06/24 00:38:38;;;;;;;20.83;18.70;;;538.50;2406.40;;;;;;5036902;28;20025;-86
2022/06/24 00:41:08;;;;;;;25.25;20.27;;;538.50;2406.40;;;;;;5037252;28;20044;-85
2022/06/24 00:43:36;;;;;;;21.65;19.40;;;538.50;2406.40;;;;;;5036916;28;20052;-87
2022/06/24 00:46:10;;;;;;;23.48;18.88;;;538.50;2406.40;;;;;;5036684;28;20025;-85
2022/06/24 00:48:38;;;;;;;21.63;19.42;;;538.50;2406.40;;;;;;5037391;28;20478;-84
2022/06/24 00:51:07;;;;;;;22.60;20.40;;;563.30;2432.00;;;;;;5036879;28;20035;-86
2022/06/24 00:53:41;;;;;;;22.92;20.52;;;538.50;2406.40;;;;;;5037866;28;20467;-85
2022/06/24 00:56:09;;;;;;;21.85;19.52;;;538.30;2406.40;;;;;;5056044;28;20022;-85
2022/06/24 00:58:35;;;;;;;24.05;20.00;;;538.30;2406.40;;;;;;5053383;28;20028;-85
2022/06/24 01:01:01;;;;;;;24.00;20.23;;;538.30;2406.40;;;;;;5059817;28;20026;-87
2022/06/24 01:03:40;;;;;;;22.08;19.73;;;537.90;2406.40;;;;;;5060148;28;20033;-86
2022/06/24 01:06:07;;;;;;;20.95;18.88;;;538.30;2406.40;;;;;;5039380;28;20026;-86
2022/06/24 01:08:33;;;;;;;21.30;19.08;;;538.40;2406.40;;;;;;5036418;28;20032;-86
2022/06/24 01:10:59;;;;;;;25.85;20.45;;;538.40;2406.40;;;;;;5036562;28;20124;-86
2022/06/24 01:13:25;;;;;;;24.17;21.67;;;538.20;2406.40;;;;;;5036235;28;20025;-85
2022/06/24 01:15:52;;;;;;;23.70;21.23;;;538.00;2406.40;;;;;;5036077;28;20021;-86
2022/06/24 01:18:17;;;;;;;22.40;20.05;;;538.00;2406.40;;;;;;5036177;28;20033;-86
2022/06/24 01:20:43;;;;;;;27.52;22.38;;;537.90;2406.40;;;;;;5036074;28;20040;-85
2022/06/24 01:23:09;;;;;;;22.27;20.13;;;537.90;2406.40;;;;;;5035906;28;20487;-84
2022/06/24 01:25:35;;;;;;;23.77;19.90;;;537.80;2406.40;;;;;;5035855;28;20533;-85
2022/06/24 01:28:01;;;;;;;23.67;21.27;;;538.00;2406.40;;;;;;5035804;28;20148;-86
2022/06/24 01:30:28;;;;;;;25.15;22.45;;;538.00;2406.40;;;;;;5035792;28;20026;-86
2022/06/24 01:32:54;;;;;;;24.08;20.85;;;538.00;2406.40;;;;;;5032752;28;20045;-87
2022/06/24 01:35:20;;;;;;;24.20;21.35;;;538.10;2406.40;;;;;;4999532;28;20522;-86
2022/06/24 01:37:46;;;;;;;23.10;20.77;;;538.20;2406.40;;;;;;4999570;28;20046;-85
2022/06/24 01:40:12;;;;;;;25.50;22.40;;;538.30;2406.40;;;;;;4999754;28;20570;-86
2022/06/24 01:42:38;;;;;;;22.77;20.13;;;538.20;2406.40;;;;;;4999322;28;20050;-86
2022/06/24 01:45:05;;;;;;;24.27;20.20;;;538.20;2406.40;;;;;;4999368;28;20026;-85
2022/06/24 01:47:30;;;;;;;23.08;20.40;;;538.20;2406.40;;;;;;4998794;28;20056;-85
2022/06/24 01:49:56;;;;;;;23.98;20.73;;;538.00;2406.40;;;;;;4999405;28;20033;-86
2022/06/24 01:52:22;;;;;;;24.02;21.23;;;537.90;2406.40;;;;;;4999368;28;20084;-85
2022/06/24 01:54:48;;;;;;;23.80;21.42;;;537.90;2406.40;;;;;;4999188;28;20030;-84
2022/06/24 01:57:14;;;;;;;24.02;21.10;;;537.70;2406.40;;;;;;4999181;28;20081;-83
2022/06/24 01:59:40;;;;;;;21.95;19.73;;;537.70;2406.40;;;;;;4998961;28;20383;-83
2022/06/24 02:02:05;;;;;;;22.27;19.42;;;537.90;2406.40;;;;;;4998918;28;20022;-83
2022/06/24 02:04:31;;;;;;;23.25;20.88;;;537.80;2406.40;;;;;;4999172;28;20029;-86
2022/06/24 02:06:57;;;;;;;23.63;19.38;;;537.90;2406.40;;;;;;4999402;28;20030;-84
2022/06/24 02:09:23;;;;;;;23.42;21.08;;;537.90;2406.40;;;;;;4998915;28;20026;-84
2022/06/24 02:14:34;;;;;;;27.33;21.35;;;537.70;2406.40;;;;;;5016455;28;20037;-87
2022/06/24 02:17:00;;;;;;;23.38;20.85;;;537.70;2406.40;;;;;;4998802;28;20120;-85
2022/06/24 02:19:26;;;;;;;22.55;20.20;;;537.70;2406.40;;;;;;4998721;28;20118;-85
2022/06/24 02:21:52;;;;;;;23.92;21.52;;;537.60;2406.40;;;;;;4998778;28;20129;-85
2022/06/24 02:24:17;;;;;;;25.83;20.83;;;537.60;2406.40;;;;;;4998550;28;20038;-85
2022/06/24 02:26:44;;;;;;;23.85;21.30;;;537.70;2406.40;;;;;;4999012;28;20026;-87
2022/06/24 02:29:10;;;;;;;24.88;22.30;;;537.60;2406.40;;;;;;4998581;28;20033;-85
2022/06/24 02:31:38;;;;;;;25.10;21.77;;;512.90;2380.80;;;;;;4998442;28;20034;-85
2022/06/24 02:34:03;;;;;;;23.60;21.27;;;512.70;2380.80;;;;;;5010400;28;20479;-85
2022/06/24 02:36:29;;;;;;;22.52;20.23;;;512.70;2380.80;;;;;;5018336;28;20037;-85
2022/06/24 02:38:56;;;;;;;23.88;21.38;;;512.50;2380.80;;;;;;5017997;28;20076;-84
2022/06/24 02:41:21;;;;;;;23.80;21.50;;;512.70;2380.80;;;;;;5017904;28;20037;-84
2022/06/24 02:43:47;;;;;;;23.15;20.52;;;512.50;2380.80;;;;;;5018017;28;20052;-84
2022/06/24 02:46:16;;;;;;;26.17;22.80;;;512.80;2380.80;;;;;;5017639;28;20049;-84
2022/06/24 02:48:43;;;;;;;24.17;21.23;;;512.80;2380.80;;;;;;5017660;28;20022;-84
2022/06/24 02:51:13;;;;;;;24.05;20.67;;;512.70;2380.80;;;;;;5017797;28;20025;-84
2022/06/24 02:53:39;;;;;;;23.05;20.77;;;512.60;2380.80;;;;;;5017745;28;20025;-84
2022/06/24 02:56:12;;;;;;;24.17;20.52;;;512.70;2380.80;;;;;;5035421;28;20028;-84
2022/06/24 02:58:38;;;;;;;24.75;20.63;;;512.70;2380.80;;;;;;5017811;28;20036;-84
2022/06/24 03:01:05;;;;;;;21.95;19.85;;;538.10;2406.40;;;;;;5016773;28;20030;-84
2022/06/24 03:03:31;;;;;;;22.50;20.35;;;537.60;2406.40;;;;;;5017590;28;20026;-85
2022/06/24 03:05:57;;;;;;;24.25;21.67;;;512.90;2380.80;;;;;;5017349;28;20026;-84
2022/06/24 03:08:26;;;;;;;25.05;22.48;;;537.60;2406.40;;;;;;5017496;28;20028;-84
2022/06/24 03:10:52;;;;;;;23.20;20.73;;;512.90;2380.80;;;;;;5017338;28;20029;-84
2022/06/24 03:13:18;;;;;;;23.15;20.70;;;512.90;2380.80;;;;;;5017317;28;20029;-84
2022/06/24 03:15:45;;;;;;;25.50;22.98;;;537.60;2406.40;;;;;;5017380;28;20383;-84
2022/06/24 03:18:14;;;;;;;25.52;22.88;;;512.90;2380.80;;;;;;5017610;28;20116;-85
2022/06/24 03:20:41;;;;;;;25.00;22.45;;;512.70;2380.80;;;;;;5017435;28;20151;-85
2022/06/24 03:23:07;;;;;;;25.15;22.55;;;512.50;2380.80;;;;;;5017451;28;20029;-84
2022/06/24 03:25:33;;;;;;;25.70;23.05;;;512.80;2380.80;;;;;;5017391;28;20036;-84
2022/06/24 03:28:01;;;;;;;28.92;22.85;;;512.80;2380.80;;;;;;5017175;28;20033;-84
2022/06/24 03:30:27;;;;;;;25.38;22.85;;;512.90;2380.80;;;;;;5017241;28;20232;-84
2022/06/24 03:32:53;;;;;;;28.20;23.33;;;512.80;2380.80;;;;;;5016820;28;20078;-84
2022/06/24 03:35:19;;;;;;;27.95;22.80;;;512.90;2380.80;;;;;;5017055;28;20026;-85
2022/06/24 03:37:45;;;;;;;25.30;22.65;;;512.80;2380.80;;;;;;5017076;28;20025;-84
2022/06/24 03:40:11;;;;;;;24.83;22.33;;;512.90;2380.80;;;;;;5017014;28;20080;-84
2022/06/24 03:42:37;;;;;;;25.90;22.20;;;512.80;2380.80;;;;;;5034561;28;20032;-84
2022/06/24 03:45:03;;;;;;;26.17;22.80;;;537.60;2406.40;;;;;;4993283;28;20121;-85
2022/06/24 03:47:29;;;;;;;25.15;22.65;;;512.90;2380.80;;;;;;4994286;28;20022;-85
2022/06/24 03:49:54;;;;;;;27.98;24.20;;;512.90;2380.80;;;;;;4994123;28;20033;-86
2022/06/24 03:52:20;;;;;;;29.13;23.23;;;512.70;2380.80;;;;;;4994029;28;20026;-86
2022/06/24 03:54:46;;;;;;;28.58;25.38;;;512.90;2380.80;;;;;;4993908;28;20464;-85
2022/06/24 03:57:12;;;;;;;28.80;22.80;;;537.60;2406.40;;;;;;4993988;28;20030;-85
2022/06/24 03:59:38;;;;;;;25.35;21.52;;;537.70;2406.40;;;;;;4993984;28;20550;-85
2022/06/24 04:02:04;;;;;;;25.25;22.20;;;537.80;2406.40;;;;;;4993690;28;20043;-85
2022/06/24 04:04:30;;;;;;;22.98;20.63;;;537.80;2406.40;;;;;;4993688;28;20031;-86
2022/06/24 04:06:56;;;;;;;22.90;20.58;;;537.70;2406.40;;;;;;4995304;28;20030;-86
2022/06/24 04:09:22;;;;;;;23.23;20.80;;;537.60;2406.40;;;;;;4993525;28;20029;-85
2022/06/24 04:11:48;;;;;;;24.30;21.90;;;537.60;2406.40;;;;;;4995777;28;20040;-85
2022/06/24 04:15:13;;;;;;;25.15;21.40;;;537.70;2406.40;;;;;;4997696;28;20527;-85
2022/06/24 04:17:03;;;;;;;23.95;21.55;;;537.80;2406.40;;;;;;4998475;28;20029;-85
2022/06/24 04:19:29;;;;;;;24.50;21.17;;;537.90;2406.40;;;;;;4997741;28;20026;-85
2022/06/24 04:21:54;;;;;;;24.45;20.60;;;537.90;2406.40;;;;;;4997656;28;20034;-85
2022/06/24 04:24:20;;;;;;;23.83;21.33;;;537.90;2406.40;;;;;;4997283;28;20516;-86
2022/06/24 04:26:46;;;;;;;24.02;20.83;;;538.00;2406.40;;;;;;4997656;28;20176;-86
2022/06/24 04:29:12;;;;;;;23.95;21.13;;;538.00;2406.40;;;;;;4997560;28;20180;-86
2022/06/24 04:31:38;;;;;;;22.75;20.45;;;538.00;2406.40;;;;;;4997721;28;20471;-86
2022/06/24 04:34:04;;;;;;;23.73;21.27;;;538.00;2406.40;;;;;;4997540;28;20488;-86
2022/06/24 04:36:29;;;;;;;24.00;20.98;;;538.10;2406.40;;;;;;4997475;28;20027;-86
2022/06/24 04:38:55;;;;;;;26.58;22.33;;;538.30;2406.40;;;;;;4997561;28;20077;-86
2022/06/24 04:41:21;;;;;;;25.42;21.85;;;538.30;2406.40;;;;;;4997622;28;20034;-85
2022/06/24 04:43:47;;;;;;;30.08;23.77;;;538.20;2406.40;;;;;;4997292;28;20030;-85
2022/06/24 04:46:13;;;;;;;25.60;22.90;;;538.10;2406.40;;;;;;4997183;28;20022;-86
2022/06/24 04:48:39;;;;;;;24.63;22.13;;;538.30;2406.40;;;;;;4997360;28;20166;-83
2022/06/24 04:51:06;;;;;;;25.60;22.92;;;538.40;2406.40;;;;;;4997479;28;20494;-85
2022/06/24 04:53:31;;;;;;;25.27;22.77;;;538.40;2406.40;;;;;;4997794;28;20479;-86
2022/06/24 04:55:58;;;;;;;25.58;23.08;;;538.50;2406.40;;;;;;4997076;28;20030;-85
2022/06/24 04:58:24;;;;;;;25.55;22.80;;;563.30;2432.00;;;;;;4997086;28;20030;-85
2022/06/24 05:00:50;;;;;;;25.73;22.60;;;538.50;2406.40;;;;;;4996733;28;20053;-85
2022/06/24 05:03:16;;;;;;;26.30;23.05;;;563.30;2432.00;;;;;;4996937;28;20121;-85
2022/06/24 05:05:42;;;;;;;25.65;22.23;;;563.20;2432.00;;;;;;4996653;28;20117;-86
2022/06/24 05:08:08;;;;;;;26.05;22.67;;;563.20;2432.00;;;;;;4996837;28;20037;-86
2022/06/24 05:10:34;;;;;;;24.08;21.73;;;538.50;2406.40;;;;;;4996593;28;20022;-86
2022/06/24 05:12:59;;;;;;;25.30;22.20;;;538.50;2406.40;;;;;;4997127;28;20499;-87
2022/06/24 05:15:25;;;;;;;25.85;22.55;;;563.20;2432.00;;;;;;4997102;28;20031;-86
2022/06/24 05:17:51;;;;;;;26.05;22.83;;;563.20;2432.00;;;;;;4996901;28;20096;-86
2022/06/24 05:20:18;;;;;;;27.10;24.45;;;538.50;2406.40;;;;;;4996800;28;20042;-86
2022/06/24 05:22:44;;;;;;;27.52;23.83;;;563.20;2432.00;;;;;;4995821;28;20049;-87
2022/06/24 05:25:10;;;;;;;26.27;23.58;;;538.50;2406.40;;;;;;4996815;28;20365;-87
2022/06/24 05:27:36;;;;;;;26.35;23.52;;;563.30;2432.00;;;;;;4997546;28;20049;-86
2022/06/24 05:30:03;;;;;;;26.83;24.13;;;563.90;2432.00;;;;;;5001355;28;20026;-88
2022/06/24 05:32:29;;;;;;;32.33;23.75;;;563.50;2432.00;;;;;;5006692;28;20037;-89
2022/06/24 05:34:56;;;;;;;26.30;23.15;;;563.60;2432.00;;;;;;5012117;28;20084;-87
2022/06/24 05:37:22;;;;;;;27.50;24.58;;;563.70;2432.00;;;;;;5014349;28;20077;-86
2022/06/24 05:39:48;;;;;;;31.05;24.50;;;563.70;2432.00;;;;;;4999345;28;20034;-87
2022/06/24 05:42:14;;;;;;;27.50;23.73;;;563.50;2432.00;;;;;;4996583;28;20038;-87
2022/06/24 05:44:39;;;;;;;27.70;24.88;;;563.80;2432.00;;;;;;4996609;28;20030;-85
2022/06/24 05:47:05;;;;;;;25.10;22.75;;;563.70;2432.00;;;;;;4995616;28;20061;-85
2022/06/24 05:49:31;;;;;;;27.88;24.15;;;563.80;2432.00;;;;;;4997151;28;20038;-84
2022/06/24 05:51:57;;;;;;;27.83;22.98;;;563.90;2432.00;;;;;;4995507;28;20578;-83
2022/06/24 05:57:07;;;;;;;27.13;23.30;;;564.00;2432.00;;;;;;4997736;28;20140;-88
2022/06/24 05:59:37;;;;;;;26.38;23.65;;;564.10;2432.00;;;;;;5008723;28;20117;-88
2022/06/24 06:02:05;;;;;;;25.75;23.00;;;564.10;2432.00;;;;;;5012651;28;20448;-87
2022/06/24 06:04:31;;;;;;;28.33;22.52;;;588.80;2432.00;;;;;;5012532;28;20018;-86
2022/06/24 06:06:57;;;;;;;24.48;21.50;;;588.80;2432.00;;;;;;4997053;28;20026;-88
2022/06/24 06:09:23;;;;;;;24.45;22.15;;;;;;;;;;5012383;28;20022;-88
2022/06/24 06:11:49;;;;;;;27.77;22.85;;;;;;;;;;4996218;28;20076;-90
2022/06/24 06:14:15;;;;;;;27.70;22.10;;;;;;;;;;4996244;28;20431;-88
2022/06/24 06:16:41;;;;;;;23.75;21.45;;;;;;;;;;4995850;28;20030;-91
2022/06/24 06:19:07;;;;;;;26.25;22.38;;;;;;;;;;4996006;28;20214;-90
2022/06/24 06:21:34;;;;;;;24.00;20.67;;;;;;;;;;4995928;28;20022;-88
2022/06/24 06:24:00;;;;;;;23.50;21.15;;;;;;;;;;4995856;28;20023;-88
2022/06/24 06:26:28;;;;;;;22.83;20.67;;;;;;;;;;4996008;28;20023;-89
2022/06/24 06:28:54;;;;;;;24.92;22.23;;;;;;;;;;4995976;28;20038;-89
2022/06/24 06:31:20;;;;;;;22.58;20.33;;;;;;;;;;4995654;28;20034;-89
2022/06/24 06:33:47;;;;;;;23.38;20.98;;;;;;;;;;4995477;28;20050;-90
2022/06/24 06:36:15;;;;;;;21.48;19.38;;;;;;;;;;4995610;28;20384;-89
2022/06/24 06:38:41;;;;;;;21.83;19.60;;;;;;;;;;4995662;28;20019;-90
2022/06/24 06:41:08;;;;;;;20.42;18.30;;;;;;;;;;4995309;28;20036;-89
2022/06/24 06:43:34;;;;;;;21.15;18.92;;;;;;;;;;4995402;28;20034;-89
2022/06/24 06:46:00;;;;;;;20.20;18.17;;;;;;;;;;4995389;28;20480;-90
2022/06/24 06:48:26;;;;;;;21.60;19.27;;;;;;;;;;4995114;28;20048;-89
2022/06/24 06:50:57;;;;;;;20.67;18.00;;;614.80;2432.00;;;;;;4995236;28;20027;-89
2022/06/24 06:53:24;;;;;;;20.40;17.30;;;614.80;2432.00;;;;;;5011508;28;20036;-89
2022/06/24 06:55:51;;;;;;;20.13;16.98;;;;;;;;;;5011388;28;20030;-91
2022/06/24 06:58:18;;;;;;;18.50;16.70;;;;;;;;;;4995664;28;20436;-91
2022/06/24 07:00:44;;;;;;;25.38;19.00;;;;;;;;;;4995264;28;20113;-90
2022/06/24 07:03:10;;;;;;;19.55;17.55;;;;;;;;;;4995395;28;20026;-90
2022/06/24 07:05:36;;;;;;;19.10;16.92;;;;;;;;;;4995153;28;20022;-91
2022/06/24 07:08:04;;;;;;;17.40;15.70;;;;;;;;;;4995272;28;20030;-91
2022/06/24 07:10:33;;;;;;;15.10;13.27;;;;;;;;;;4995131;28;20022;-90
2022/06/24 07:13:38;;;;;;;14.95;13.40;;;640.50;2432.00;;;;;;4994547;28;20030;-89
2022/06/24 07:16:11;;;;;;;14.07;11.32;;;640.40;2432.00;;;;;;4995300;28;20031;-89
2022/06/24 07:18:37;;;;;;;13.05;11.38;;;;;;;;;;5011585;28;20026;-89
2022/06/24 07:21:15;;;;;;;15.07;11.48;;;640.70;2432.00;;;;;;4995058;28;20026;-89
2022/06/24 07:23:44;;;;;;;11.50;10.07;;;640.90;2432.00;;;;;;5011244;28;20026;-89
2022/06/24 07:26:10;;;;;;;13.90;9.15;;;665.70;2432.00;;;;;;5011429;28;20445;-88
2022/06/24 07:28:39;;;;;;;11.90;9.32;;;665.80;2432.00;;;;;;5011662;28;20026;-90
2022/06/24 07:31:20;;;;;;;10.45;8.63;;;666.20;2432.00;;;;;;5011331;28;20129;-91
2022/06/24 07:34:07;;;;;;;;;;;;;;;;;;;;;
2022/06/24 07:36:41;;;;;;;10.07;8.65;;;666.30;2432.00;;;;;;4996037;28;20490;-90
2022/06/24 07:39:07;;;;;;;10.10;8.25;;;666.40;2432.00;;;;;;5010586;28;20463;-89
2022/06/24 07:41:38;;;;;;;12.73;8.52;;;666.50;2432.00;;;;;;5011117;28;20484;-89
2022/06/24 07:44:05;;;;;;;11.52;8.60;;;666.50;2432.00;;;;;;5011494;28;20121;-88
2022/06/24 07:46:40;;;;;;;24.20;10.98;;;691.40;2432.00;;;;;;5011210;28;20487;-89
2022/06/24 07:49:06;;;;;;;14.15;9.43;;;692.00;2432.00;;;;;;5011814;28;20049;-87
2022/06/24 07:51:35;;;;;;;10.27;9.20;;;691.60;2432.00;;;;;;5011902;28;20037;-90
2022/06/24 07:54:07;;;;;;;15.55;11.43;;;665.70;2432.00;;;;;;5011436;28;20022;-89
2022/06/24 07:56:58;;;;;;;12.40;10.30;;;691.60;2432.00;;;;;;5011396;28;20038;-87
2022/06/24 07:59:25;;;;;;;12.82;10.10;;;691.70;2432.00;;;;;;5010625;28;20468;-89
2022/06/24 08:01:56;;;;;;;11.60;9.88;;;691.70;2432.00;;;;;;5011246;28;20098;-90
2022/06/24 08:04:39;;;;;;;11.70;9.40;;;691.60;2432.00;;;;;;5011224;28;20061;-90
2022/06/24 08:07:05;;;;;;;12.52;9.05;;;691.70;2432.00;;;;;;5010330;28;20362;-90
2022/06/24 08:09:36;;;;;;;10.13;9.13;;;717.30;2432.00;;;;;;5011026;28;20027;-89
2022/06/24 08:12:03;;;;;;;10.80;8.70;;;691.70;2432.00;;;;;;5011007;28;20082;-89
2022/06/24 08:14:32;;;;;;;12.60;9.82;;;691.80;2432.00;;;;;;5010934;28;20070;-88
2022/06/24 08:16:58;;;;;;;12.52;7.07;;;692.10;2432.00;;;;;;5020139;28;20026;-86
2022/06/24 08:19:24;;;;;;;8.93;6.60;;;717.00;2432.00;;;;;;4994222;28;20031;-88
2022/06/24 08:21:50;;;;;;;8.68;6.68;;;717.20;2406.40;;;;;;4993984;28;20026;-89
2022/06/24 08:24:16;;;;;;;11.73;7.15;;;717.40;2380.80;;;;;;4993833;28;20067;-87
2022/06/24 08:26:42;;;;;;;9.02;6.07;;;716.90;2355.20;;;;;;4993452;28;20019;-82
2022/06/24 08:29:10;;;;;;;8.48;6.60;;;691.80;2380.80;;;;;;4992929;28;20033;-83
2022/06/24 08:31:37;;;;;;;8.13;7.10;;;691.60;2380.80;;;;;;4993746;28;20031;-85
2022/06/24 08:34:03;;;;;;;12.05;9.13;;;691.40;2406.40;;;;;;4992984;28;20050;-83
2022/06/24 08:36:28;;;;;;;8.65;6.82;;;691.20;2432.00;;;;;;4993446;28;20026;-84
2022/06/24 08:38:55;;;;;;;8.48;7.13;;;691.20;2406.40;;;;;;4992883;28;20081;-83
2022/06/24 08:41:23;;;;;;;8.88;6.30;;;666.50;2380.80;;;;;;4992845;28;20022;-84
2022/06/24 08:43:51;;;;;;;9.02;7.32;;;666.40;2406.40;;;;;;4993027;28;20113;-84
2022/06/24 08:46:18;;;;;;;11.23;6.70;;;666.50;2406.40;;;;;;4992921;28;20031;-81
2022/06/24 08:48:44;;;;;;;8.68;7.28;;;666.30;2380.80;;;;;;4996859;28;20027;-81
2022/06/24 08:51:13;;;;;;;7.55;5.95;;;666.30;2380.80;;;;;;5016678;28;20030;-82
2022/06/24 08:53:39;;;;;;;8.27;6.35;;;666.20;2355.20;;;;;;5012170;28;20019;-82
2022/06/24 08:56:08;;;;;;;18.83;9.55;;;691.40;2355.20;;;;;;5012322;28;20030;-84
2022/06/24 08:58:35;;;;;;;10.48;8.25;;;691.90;2355.20;;;;;;5011707;28;20092;-82
2022/06/24 09:01:01;;;;;;;5.68;4.88;;;716.90;2304.00;;;;;;4999573;28;20119;-83
2022/06/24 09:03:27;;;;;;;6.82;4.68;;;717.20;2227.20;;;;;;4999205;28;20033;-82
2022/06/24 09:05:53;;;;;;;8.07;5.80;;;;;;;;;;4985665;28;20037;-83
2022/06/24 09:08:19;;;;;;;7.68;5.85;;;742.40;2201.60;;;;;;4998769;28;20026;-83
2022/06/24 09:13:42;;;;;;;7.88;4.95;;;743.00;2124.80;;;;;;5016486;28;20033;-86
2022/06/24 09:16:09;;;;;;;6.18;4.38;;;743.10;2073.60;;;;;;5001418;28;20041;-86
2022/06/24 09:18:35;;;;;;;9.77;5.45;;;;;;;;;;5015692;28;20022;-85
2022/06/24 09:21:01;;;;;;;7.53;4.53;;;768.00;1996.80;;;;;;5014823;28;20542;-84
2022/06/24 09:23:27;;;;;;;6.80;4.18;;;768.10;1971.20;;;;;;5007133;28;20064;-85
2022/06/24 09:25:56;;;;;;;9.63;6.13;;;743.30;1971.20;;;;;;5012761;28;20025;-86
2022/06/24 09:28:31;;;;;;;9.10;5.30;;;743.00;1971.20;;;;;;5012704;28;20049;-83
2022/06/24 09:31:07;;;;;;;6.55;3.97;;;742.90;2048.00;;;;;;5006895;28;20026;-84
2022/06/24 09:33:41;;;;;;;6.50;4.43;;;742.70;2022.40;;;;;;5009221;28;20058;-84
2022/06/24 09:36:09;;;;;;;9.63;5.10;;;742.60;2022.40;;;;;;4998694;28;20060;-83
2022/06/24 09:38:59;;;;;;;6.30;4.95;;;717.70;2048.00;;;;;;4998446;28;20076;-85
2022/06/24 09:41:26;;;;;;;13.68;5.20;;;717.50;2073.60;;;;;;4997285;28;20041;-84
2022/06/24 09:43:52;;;;;;;6.55;4.47;;;717.30;2099.20;;;;;;4998911;28;20034;-82
2022/06/24 09:46:21;;;;;;;5.95;4.20;;;717.20;2073.60;;;;;;4998371;28;20053;-83
2022/06/24 09:48:47;;;;;;;8.00;4.85;;;717.20;2073.60;;;;;;4998765;28;20026;-84
2022/06/24 09:51:15;;;;;;;10.95;5.43;;;717.60;2022.40;;;;;;4998452;28;20030;-83
2022/06/24 09:53:41;;;;;;;8.43;5.35;;;742.50;2073.60;;;;;;4999700;28;20026;-85
2022/06/24 09:56:09;;;;;;;8.55;4.53;;;742.60;2048.00;;;;;;5000252;28;20033;-85
2022/06/24 09:58:36;;;;;;;6.05;4.65;;;742.70;1996.80;;;;;;5000609;28;20021;-85
2022/06/24 10:01:02;;;;;;;8.23;4.45;;;743.10;2022.40;;;;;;5003889;28;20034;-86
2022/06/24 10:03:30;;;;;;;7.18;4.70;;;743.20;1996.80;;;;;;5000884;28;20046;-85
2022/06/24 10:06:05;;;;;;;6.03;4.75;;;768.20;1971.20;;;;;;4998652;28;20025;-84
2022/06/24 10:08:36;;;;;;;7.78;4.30;;;768.20;1920.00;;;;;;4997813;28;20026;-84
2022/06/24 10:11:07;;;;;;;6.72;4.80;;;768.50;1945.60;;;;;;4998434;28;20033;-84
2022/06/24 10:13:34;;;;;;;;;;;768.50;1920.00;;;;;;5006055;28;20049;-82
2022/06/24 10:16:02;;;;;;;7.55;4.65;;;768.60;1894.40;;;;;;5010918;28;19951;-83
2022/06/24 10:18:36;;;;;;;10.25;4.47;;;768.60;1894.40;;;;;;5028880;28;20026;-82
2022/06/24 10:21:05;;;;;;;7.30;4.72;;;768.80;1894.40;;;;;;5013142;28;20037;-83
2022/06/24 10:23:52;;;;;;;7.28;3.97;;;793.70;1894.40;;;;;;5012386;28;20036;-81
2022/06/24 10:26:25;;;;;;;7.28;4.70;;;793.70;1920.00;;;;;;5009266;28;20467;-82
2022/06/24 10:29:05;;;;;;;8.40;5.22;;;768.90;1868.80;;;;;;4997569;28;20054;-83
2022/06/24 10:31:53;;;;;;;5.55;4.18;;;768.50;1868.80;;;;;;4997525;28;20034;-82
2022/06/24 10:34:32;;;;;;;10.38;5.22;;;768.60;1843.20;;;;;;4993792;28;20046;-84
2022/06/24 10:37:13;;;;;;;9.27;5.65;;;768.90;1817.60;;;;;;4995488;28;20117;-82
2022/06/24 10:39:59;;;;;;;7.40;4.40;;;793.60;1817.60;;;;;;4994073;28;20487;-82
2022/06/24 10:42:26;;;;;;;8.07;5.45;;;793.70;1817.60;;;;;;4994063;28;20038;-82
2022/06/24 10:44:52;;;;;;;7.40;5.15;;;768.80;1817.60;;;;;;4994052;28;20034;-81
2022/06/24 10:47:19;;;;;;;8.68;6.25;;;793.70;1817.60;;;;;;4993763;28;20038;-82
2022/06/24 10:49:51;;;;;;;7.28;5.45;;;793.90;1817.60;;;;;;4994088;28;20030;-81
2022/06/24 10:52:47;;;;;;;7.68;5.32;;;793.70;1817.60;;;;;;4993839;28;20037;-82
2022/06/24 10:55:28;;;;;;;8.45;5.20;;;793.90;1817.60;;;;;;4993485;28;20031;-81
2022/06/24 10:57:56;;;;;;;6.30;5.10;;;794.10;1766.40;;;;;;4993972;28;20057;-83
2022/06/24 11:00:23;;;;;;;6.93;4.47;;;819.20;1740.80;;;;;;4994206;28;20038;-86
2022/06/24 11:03:02;;;;;;;6.97;4.57;;;794.50;1740.80;;;;;;4994168;28;20481;-85
2022/06/24 11:05:36;;;;;;;8.02;5.47;;;794.50;1766.40;;;;;;4995168;28;20084;-86
2022/06/24 11:08:08;;;;;;;7.10;4.68;;;819.20;1740.80;;;;;;4993705;28;20491;-84
2022/06/24 11:10:34;;;;;;;5.95;3.63;;;819.30;1715.20;;;;;;4993879;28;20030;-85
2022/06/24 11:13:02;;;;;;;8.05;4.40;;;819.30;1715.20;;;;;;4993740;28;20033;-85
2022/06/24 11:15:36;;;;;;;7.15;4.00;;;819.20;1715.20;;;;;;4993714;28;20034;-86
2022/06/24 11:18:27;;;;;;;8.50;4.80;;;794.40;1766.40;;;;;;4993364;28;20456;-84
2022/06/24 11:21:05;;;;;;;5.47;4.22;;;819.30;1740.80;;;;;;4981118;28;20051;-83
2022/06/24 11:23:34;;;;;;;6.70;4.22;;;819.50;1715.20;;;;;;4992687;28;20443;-85
2022/06/24 11:26:01;;;;;;;8.10;4.20;;;819.30;1689.60;;;;;;4993823;28;20034;-86
2022/06/24 11:28:28;;;;;;;6.10;3.45;;;819.80;1715.20;;;;;;4993868;28;20056;-82
2022/06/24 11:30:56;;;;;;;5.93;3.85;;;819.80;1689.60;;;;;;4995047;28;20082;-84
2022/06/24 11:33:23;;;;;;;5.40;3.97;;;819.80;1689.60;;;;;;5014473;28;20050;-83
2022/06/24 11:35:50;;;;;;;8.82;6.35;;;844.80;1740.80;;;;;;5029067;28;20022;-87
2022/06/24 11:38:22;;;;;;;7.13;5.85;;;845.10;1689.60;;;;;;5321985;23;20121;-82
2022/06/24 11:40:49;;;;;;;9.10;7.95;;;845.20;1715.20;;;;;;4978895;28;20045;-84
2022/06/24 11:43:15;;;;;;;7.45;5.65;;;845.50;1740.80;;;;;;4960379;28;20114;-85
2022/06/24 11:45:49;;;;;;;9.02;5.68;;;845.50;1664.00;;;;;;4977352;28;20030;-83
2022/06/24 11:48:22;;;;;;;7.40;5.38;;;845.60;1689.60;;;;;;4976511;28;20050;-83
2022/06/24 11:50:48;;;;;;;11.52;7.78;;;845.60;1664.00;;;;;;4976893;28;20105;-83
2022/06/24 11:53:16;;;;;;;5.40;4.65;;;845.60;1689.60;;;;;;4976253;28;20026;-84
2022/06/24 11:55:42;;;;;;;6.72;5.63;;;845.30;1689.60;;;;;;4976909;28;20019;-84
2022/06/24 11:58:12;;;;;;;9.70;4.93;;;845.60;1664.00;;;;;;4976299;28;20049;-83
2022/06/24 12:00:40;;;;;;;6.22;4.10;;;845.70;1638.40;;;;;;4987493;28;20045;-85
2022/06/24 12:03:08;;;;;;;8.25;4.20;;;845.50;1638.40;;;;;;4957522;28;20038;-82
2022/06/24 12:05:38;;;;;;;8.13;3.20;;;845.70;1664.00;;;;;;4957165;28;20409;-82
2022/06/24 12:08:05;;;;;;;5.57;3.28;;;845.70;1638.40;;;;;;4958427;28;20034;-85
2022/06/24 12:10:31;;;;;;;8.82;3.60;;;845.60;1612.80;;;;;;4958177;28;20038;-84
2022/06/24 12:12:59;;;;;;;5.72;3.80;;;845.70;1638.40;;;;;;4957903;28;20027;-82
2022/06/24 12:15:41;;;;;;;7.53;3.63;;;845.60;1612.80;;;;;;4974233;28;20090;-82
2022/06/24 12:18:18;;;;;;;5.97;3.40;;;845.60;1638.40;;;;;;4974029;28;20393;-83
2022/06/24 12:20:56;;;;;;;6.95;2.95;;;845.50;1612.80;;;;;;4959933;28;20481;-84
2022/06/24 12:23:23;;;;;;;6.63;3.20;;;845.50;1612.80;;;;;;4976978;28;20165;-85
2022/06/24 12:25:51;;;;;;;5.45;3.00;;;845.70;1612.80;;;;;;4976716;28;20026;-82
2022/06/24 12:28:27;;;;;;;6.30;3.03;;;845.70;1587.20;;;;;;4976741;28;20388;-83
2022/06/24 12:31:05;;;;;;;6.32;3.20;;;845.60;1587.20;;;;;;4976782;28;20148;-83
2022/06/24 12:33:50;;;;;;;14.45;4.13;;;845.20;1612.80;;;;;;4979497;28;20018;-82